createdAt,value
2019-01-23T00:00:55.182Z,28.77
2019-01-23T00:03:27.860Z,34.07
2019-01-23T00:06:00.387Z,33.73
2019-01-23T00:08:32.752Z,34.40
2019-01-23T00:11:05.505Z,32.53
2019-01-23T00:13:38.377Z,37.03
2019-01-23T00:16:10.848Z,38.20
2019-01-23T00:18:43.382Z,39.80
2019-01-23T00:21:15.877Z,37.03
2019-01-23T00:23:48.261Z,39.70
2019-01-23T00:26:20.862Z,37.53
2019-01-23T00:28:53.651Z,36.53
2019-01-23T00:31:26.173Z,34.10
2019-01-23T00:33:58.695Z,33.07
2019-01-23T00:36:31.140Z,30.80
2019-01-23T00:39:04.739Z,30.80
2019-01-23T00:41:37.125Z,29.73
2019-01-23T00:44:09.655Z,30.30
2019-01-23T00:46:42.216Z,30.77
2019-01-23T00:49:14.618Z,29.80
2019-01-23T00:51:47.182Z,30.93
2019-01-23T00:54:19.854Z,30.70
2019-01-23T00:56:52.405Z,34.50
2019-01-23T00:59:24.955Z,33.47
2019-01-23T01:01:57.597Z,32.93
2019-01-23T01:04:29.975Z,33.83
2019-01-23T01:07:02.446Z,31.27
2019-01-23T01:09:35.087Z,31.93
2019-01-23T01:12:07.796Z,30.87
2019-01-23T01:14:41.265Z,32.33
2019-01-23T01:17:13.513Z,32.30
2019-01-23T01:19:46.014Z,33.23
2019-01-23T01:22:19.904Z,32.27
2019-01-23T01:24:52.720Z,30.27
2019-01-23T01:27:25.349Z,30.30
2019-01-23T01:29:58.050Z,31.07
2019-01-23T01:32:30.681Z,29.47
2019-01-23T01:35:03.173Z,29.80
2019-01-23T01:37:35.700Z,30.80
2019-01-23T01:40:12.562Z,29.57
2019-01-23T01:42:45.341Z,28.40
2019-01-23T01:45:19.233Z,28.20
2019-01-23T01:47:51.646Z,29.33
2019-01-23T01:50:24.500Z,30.00
2019-01-23T01:52:57.234Z,31.13
2019-01-23T01:55:29.866Z,31.17
2019-01-23T01:58:03.736Z,31.10
2019-01-23T02:00:36.866Z,30.23
2019-01-23T02:03:09.489Z,33.60
2019-01-23T02:05:42.011Z,31.97
2019-01-23T02:08:14.468Z,30.17
2019-01-23T02:10:46.935Z,32.17
2019-01-23T02:13:19.342Z,31.33
2019-01-23T02:15:51.922Z,30.70
2019-01-23T02:18:24.495Z,32.23
2019-01-23T02:20:57.276Z,32.17
2019-01-23T02:23:29.700Z,32.27
2019-01-23T02:26:02.461Z,31.60
2019-01-23T02:28:35.127Z,32.23
2019-01-23T02:31:07.551Z,33.73
2019-01-23T02:33:40.054Z,34.13
2019-01-23T02:36:14.286Z,34.13
2019-01-23T02:38:46.861Z,34.40
2019-01-23T02:41:19.444Z,31.80
2019-01-23T02:43:51.975Z,32.67
2019-01-23T02:46:25.022Z,33.43
2019-01-23T02:48:57.335Z,32.27
2019-01-23T02:51:29.709Z,31.33
2019-01-23T02:54:02.419Z,35.30
2019-01-23T02:56:34.997Z,34.50
2019-01-23T02:59:07.612Z,35.17
2019-01-23T03:01:41.508Z,35.60
2019-01-23T03:04:14.450Z,34.83
2019-01-23T03:06:46.823Z,33.63
2019-01-23T03:09:19.365Z,33.17
2019-01-23T03:11:51.714Z,34.97
2019-01-23T03:14:24.075Z,34.33
2019-01-23T03:16:56.465Z,33.13
2019-01-23T03:19:29.130Z,31.17
2019-01-23T03:22:01.876Z,32.27
2019-01-23T03:24:34.432Z,31.00
2019-01-23T03:27:07.306Z,29.67
2019-01-23T03:29:39.850Z,31.80
2019-01-23T03:32:12.334Z,30.63
2019-01-23T03:34:44.726Z,31.50
2019-01-23T03:37:17.128Z,30.13
2019-01-23T03:39:49.821Z,32.13
2019-01-23T03:42:22.335Z,30.43
2019-01-23T03:44:54.891Z,31.50
2019-01-23T03:47:27.457Z,28.63
2019-01-23T03:50:00.225Z,29.27
2019-01-23T03:52:32.811Z,33.33
2019-01-23T03:55:05.708Z,32.43
2019-01-23T03:57:38.420Z,32.60
2019-01-23T04:00:15.255Z,32.40
2019-01-23T04:02:48.428Z,31.07
2019-01-23T04:05:21.080Z,30.67
2019-01-23T04:07:53.884Z,32.47
2019-01-23T04:10:26.218Z,34.97
2019-01-23T04:12:58.663Z,35.20
2019-01-23T04:15:31.242Z,31.33
2019-01-23T04:18:05.565Z,29.73
2019-01-23T04:20:37.890Z,31.70
2019-01-23T04:23:10.473Z,31.30
2019-01-23T04:25:46.266Z,31.43
2019-01-23T04:28:18.628Z,30.80
2019-01-23T04:30:52.065Z,31.80
2019-01-23T04:33:24.666Z,31.53
2019-01-23T04:35:57.119Z,31.63
2019-01-23T04:38:29.477Z,30.30
2019-01-23T04:41:01.997Z,32.37
2019-01-23T04:43:34.648Z,34.13
2019-01-23T04:46:07.290Z,36.30
2019-01-23T04:48:39.947Z,33.50
2019-01-23T04:51:40.044Z,35.13
2019-01-23T04:54:15.682Z,34.57
2019-01-23T04:56:48.271Z,33.57
2019-01-23T04:59:20.711Z,34.10
2019-01-23T05:01:53.502Z,33.87
2019-01-23T05:04:26.127Z,33.00
2019-01-23T05:06:58.475Z,33.20
2019-01-23T05:09:30.971Z,33.90
2019-01-23T05:12:03.567Z,33.83
2019-01-23T05:14:36.359Z,34.53
2019-01-23T05:17:08.685Z,34.43
2019-01-23T05:19:41.401Z,36.00
2019-01-23T05:22:14.245Z,36.63
2019-01-23T05:24:46.873Z,35.33
2019-01-23T05:27:19.473Z,33.50
2019-01-23T05:29:55.085Z,33.50
2019-01-23T05:32:26.760Z,32.77
2019-01-23T05:34:59.143Z,34.40
2019-01-23T05:37:31.681Z,34.83
2019-01-23T05:40:03.976Z,32.87
2019-01-23T05:42:36.956Z,33.17
2019-01-23T05:45:10.684Z,38.33
2019-01-23T05:47:43.262Z,35.30
2019-01-23T05:50:17.169Z,35.37
2019-01-23T05:52:49.957Z,34.20
2019-01-23T05:55:22.506Z,33.87
2019-01-23T05:57:55.112Z,34.30
2019-01-23T06:00:28.377Z,32.03
2019-01-23T06:03:01.186Z,38.67
2019-01-23T06:05:33.892Z,37.97
2019-01-23T06:08:06.729Z,35.77
2019-01-23T06:10:39.142Z,35.77
2019-01-23T06:13:11.806Z,30.67
2019-01-23T06:15:44.284Z,30.70
2019-01-23T06:18:16.959Z,31.23
2019-01-23T06:20:49.498Z,29.67
2019-01-23T06:23:22.022Z,31.90
2019-01-23T06:25:54.517Z,31.50
2019-01-23T06:28:26.887Z,30.43
2019-01-23T06:30:59.545Z,30.97
2019-01-23T06:33:31.952Z,31.90
2019-01-23T06:36:04.998Z,31.13
2019-01-23T06:38:37.481Z,30.37
2019-01-23T06:41:10.172Z,30.27
2019-01-23T06:43:42.807Z,29.30
2019-01-23T06:46:16.101Z,28.63
2019-01-23T06:48:48.688Z,30.07
2019-01-23T06:51:21.136Z,29.37
2019-01-23T06:53:53.516Z,31.23
2019-01-23T06:56:25.890Z,29.93
2019-01-23T06:58:58.335Z,29.40
2019-01-23T07:01:31.087Z,31.37
2019-01-23T07:04:03.558Z,29.50
2019-01-23T07:06:35.996Z,29.80
2019-01-23T07:09:10.958Z,30.77
2019-01-23T07:11:43.543Z,30.27
2019-01-23T07:14:15.952Z,28.63
2019-01-23T07:16:48.529Z,29.17
2019-01-23T07:19:21.290Z,27.70
2019-01-23T07:21:53.942Z,54.93
2019-01-23T07:24:26.245Z,55.70
2019-01-23T07:26:58.639Z,37.50
2019-01-23T07:29:31.178Z,34.43
2019-01-23T07:32:03.782Z,29.07
2019-01-23T07:34:36.255Z,29.77
2019-01-23T07:37:08.750Z,34.90
2019-01-23T07:39:41.344Z,28.53
2019-01-23T07:42:13.761Z,27.67
2019-01-23T07:44:46.465Z,27.73
2019-01-23T07:47:18.959Z,27.10
2019-01-23T07:49:51.432Z,26.27
2019-01-23T07:52:24.061Z,25.90
2019-01-23T07:54:56.616Z,26.23
2019-01-23T07:57:29.073Z,26.20
2019-01-23T08:00:01.625Z,26.43
2019-01-23T08:02:34.122Z,26.77
2019-01-23T08:05:08.316Z,26.50
2019-01-23T08:07:42.251Z,26.33
2019-01-23T08:10:16.645Z,26.97
2019-01-23T08:12:49.213Z,27.17
2019-01-23T08:15:24.884Z,26.93
2019-01-23T08:17:57.995Z,26.93
2019-01-23T08:20:30.985Z,27.57
2019-01-23T08:23:03.345Z,26.97
2019-01-23T08:25:36.012Z,27.33
2019-01-23T08:28:08.750Z,27.10
2019-01-23T08:30:41.153Z,29.73
2019-01-23T08:33:13.520Z,27.43
2019-01-23T08:35:46.055Z,29.03
2019-01-23T08:38:18.538Z,29.40
2019-01-23T08:40:51.166Z,27.60
2019-01-23T08:43:23.589Z,25.43
2019-01-23T08:45:55.975Z,27.03
2019-01-23T08:48:28.676Z,25.67
2019-01-23T08:51:01.383Z,24.60
2019-01-23T08:53:34.771Z,22.90
2019-01-23T08:56:07.665Z,23.97
2019-01-23T08:58:40.424Z,22.97
2019-01-23T09:01:13.025Z,23.00
2019-01-23T09:03:45.409Z,24.70
2019-01-23T09:06:18.038Z,23.90
2019-01-23T09:08:50.342Z,24.63
2019-01-23T09:11:23.305Z,22.97
2019-01-23T09:13:55.886Z,23.93
2019-01-23T09:16:28.348Z,24.10
2019-01-23T09:19:00.779Z,25.40
2019-01-23T09:21:33.242Z,23.80
2019-01-23T09:24:06.029Z,26.03
2019-01-23T09:26:38.426Z,22.97
2019-01-23T09:29:10.790Z,23.00
2019-01-23T09:32:26.795Z,22.67
2019-01-23T09:35:35.699Z,23.60
2019-01-23T09:39:07.975Z,23.13
2019-01-23T09:42:18.808Z,22.93
2019-01-23T09:45:33.590Z,23.50
2019-01-23T09:48:27.466Z,23.83
2019-01-23T09:51:39.719Z,23.17
2019-01-23T09:54:17.345Z,23.93
2019-01-23T09:56:51.020Z,23.60
2019-01-23T09:59:23.656Z,25.27
2019-01-23T10:01:56.269Z,25.27
2019-01-23T10:04:29.432Z,25.20
2019-01-23T10:07:02.319Z,26.63
2019-01-23T10:09:34.916Z,25.13
2019-01-23T10:12:07.770Z,25.03
2019-01-23T10:14:40.265Z,26.00
2019-01-23T10:17:12.690Z,26.40
2019-01-23T10:19:44.996Z,27.53
2019-01-23T10:22:17.443Z,32.07
2019-01-23T10:24:49.977Z,25.77
2019-01-23T10:27:22.459Z,27.03
2019-01-23T10:29:54.818Z,25.73
2019-01-23T10:32:27.504Z,27.13
2019-01-23T10:35:00.250Z,25.23
2019-01-23T10:37:32.613Z,26.00
2019-01-23T10:40:05.446Z,23.50
2019-01-23T10:42:37.968Z,24.97
2019-01-23T10:45:11.440Z,22.87
2019-01-23T10:47:44.471Z,22.47
2019-01-23T10:50:17.567Z,23.03
2019-01-23T10:52:50.018Z,22.67
2019-01-23T10:55:22.448Z,22.53
2019-01-23T10:57:54.820Z,25.20
2019-01-23T11:00:27.367Z,22.63
2019-01-23T11:03:00.092Z,21.50
2019-01-23T11:05:32.657Z,21.10
2019-01-23T11:08:05.179Z,23.70
2019-01-23T11:10:37.864Z,23.50
2019-01-23T11:13:10.542Z,20.87
2019-01-23T11:15:43.037Z,23.30
2019-01-23T11:18:15.682Z,23.47
2019-01-23T11:20:48.199Z,21.80
2019-01-23T11:23:21.193Z,22.10
2019-01-23T11:25:53.737Z,19.57
2019-01-23T11:28:26.055Z,20.60
2019-01-23T11:30:58.577Z,22.03
2019-01-23T11:33:31.395Z,20.90
2019-01-23T11:36:03.827Z,18.57
2019-01-23T11:38:36.210Z,19.93
2019-01-23T11:41:08.921Z,17.20
2019-01-23T11:43:41.364Z,19.70
2019-01-23T11:46:13.665Z,18.67
2019-01-23T11:48:46.244Z,18.23
2019-01-23T11:51:18.663Z,18.83
2019-01-23T11:53:51.159Z,19.40
2019-01-23T11:56:24.214Z,16.60
2019-01-23T11:58:56.764Z,17.47
2019-01-23T12:01:29.396Z,16.23
2019-01-23T12:04:01.975Z,15.10
2019-01-23T12:06:34.912Z,15.83
2019-01-23T12:09:10.927Z,16.97
2019-01-23T12:11:43.597Z,13.23
2019-01-23T12:14:16.272Z,14.63
2019-01-23T12:16:48.957Z,14.57
2019-01-23T12:19:21.556Z,14.20
2019-01-23T12:21:54.823Z,16.23
2019-01-23T12:24:28.149Z,14.70
2019-01-23T12:27:00.670Z,15.60
2019-01-23T12:29:33.436Z,15.07
2019-01-23T12:32:06.388Z,15.00
2019-01-23T12:34:38.945Z,14.17
2019-01-23T12:37:11.287Z,15.13
2019-01-23T12:39:45.376Z,14.37
2019-01-23T12:42:18.054Z,14.33
2019-01-23T12:44:52.119Z,15.23
2019-01-23T12:47:24.622Z,14.80
2019-01-23T12:49:57.187Z,16.13
2019-01-23T12:52:29.911Z,15.40
2019-01-23T12:55:02.402Z,15.00
2019-01-23T12:57:34.717Z,14.73
2019-01-23T13:00:10.864Z,15.10
2019-01-23T13:02:43.228Z,14.53
2019-01-23T13:05:18.599Z,14.60
2019-01-23T13:07:51.399Z,15.23
2019-01-23T13:10:24.849Z,14.87
2019-01-23T13:12:57.862Z,15.20
2019-01-23T13:15:30.893Z,14.37
2019-01-23T13:18:03.307Z,15.03
2019-01-23T13:20:35.696Z,15.83
2019-01-23T13:23:08.111Z,15.97
2019-01-23T13:25:40.722Z,16.37
2019-01-23T13:28:13.471Z,15.50
2019-01-23T13:31:04.406Z,15.33
2019-01-23T13:33:37.061Z,15.97
2019-01-23T13:36:10.844Z,16.13
2019-01-23T13:38:43.426Z,16.07
2019-01-23T13:41:16.116Z,16.53
2019-01-23T13:43:48.494Z,15.33
2019-01-23T13:46:22.868Z,14.57
2019-01-23T13:48:55.782Z,15.40
2019-01-23T13:51:28.477Z,13.87
2019-01-23T13:54:01.089Z,15.73
2019-01-23T13:56:52.333Z,15.10
2019-01-23T13:59:24.718Z,13.70
2019-01-23T14:01:57.373Z,13.30
2019-01-23T14:04:29.734Z,12.97
2019-01-23T14:07:02.213Z,13.67
2019-01-23T14:09:34.508Z,14.00
2019-01-23T14:12:06.876Z,14.43
2019-01-23T14:14:40.039Z,14.70
2019-01-23T14:17:12.422Z,14.23
2019-01-23T14:19:45.165Z,14.53
2019-01-23T14:22:17.659Z,14.47
2019-01-23T14:24:50.166Z,15.03
2019-01-23T14:27:22.923Z,13.47
2019-01-23T14:29:55.496Z,13.87
2019-01-23T14:32:27.945Z,13.80
2019-01-23T14:35:00.454Z,14.23
2019-01-23T14:37:32.775Z,13.17
2019-01-23T14:40:06.247Z,13.60
2019-01-23T14:42:38.512Z,14.97
2019-01-23T14:45:11.401Z,15.03
2019-01-23T14:47:44.092Z,15.37
2019-01-23T14:50:17.430Z,44.07
2019-01-23T14:52:50.232Z,15.87
2019-01-23T14:55:23.104Z,15.37
2019-01-23T14:57:55.532Z,14.37
2019-01-23T15:00:29.120Z,15.73
2019-01-23T15:03:01.674Z,16.70
2019-01-23T15:05:34.649Z,14.57
2019-01-23T15:08:07.289Z,15.13
2019-01-23T15:10:39.621Z,15.87
2019-01-23T15:13:12.299Z,14.80
2019-01-23T15:15:45.332Z,15.23
2019-01-23T15:18:17.979Z,16.10
2019-01-23T15:20:50.388Z,15.43
2019-01-23T15:23:22.967Z,16.53
2019-01-23T15:25:55.474Z,15.83
2019-01-23T15:28:28.167Z,15.80
2019-01-23T15:31:00.883Z,15.87
2019-01-23T15:33:33.556Z,16.53
2019-01-23T15:36:06.404Z,15.50
2019-01-23T15:38:38.889Z,15.10
2019-01-23T15:41:11.513Z,15.37
2019-01-23T15:43:44.137Z,16.40
2019-01-23T15:46:16.584Z,16.07
2019-01-23T15:48:49.112Z,15.60
2019-01-23T15:51:21.552Z,16.20
2019-01-23T15:53:54.279Z,15.53
2019-01-23T15:56:26.911Z,21.90
2019-01-23T15:58:59.284Z,16.40
2019-01-23T16:01:31.749Z,26.13
2019-01-23T16:04:04.216Z,16.33
2019-01-23T16:06:36.957Z,17.40
2019-01-23T16:09:09.992Z,16.20
2019-01-23T16:11:42.570Z,17.10
2019-01-23T16:14:15.270Z,19.80
2019-01-23T16:16:47.842Z,16.17
2019-01-23T16:19:20.564Z,26.57
2019-01-23T16:21:52.884Z,16.53
2019-01-23T16:24:25.390Z,16.43
2019-01-23T16:26:57.735Z,17.17
2019-01-23T16:29:30.141Z,15.80
2019-01-23T16:32:03.330Z,15.53
2019-01-23T16:34:35.879Z,15.73
2019-01-23T16:37:08.534Z,15.07
2019-01-23T16:39:41.370Z,15.23
2019-01-23T16:42:13.997Z,17.27
2019-01-23T16:44:46.462Z,15.37
2019-01-23T16:47:19.169Z,15.60
2019-01-23T16:49:52.081Z,15.27
2019-01-23T16:52:25.302Z,16.00
2019-01-23T16:54:57.633Z,15.93
2019-01-23T16:57:30.191Z,14.10
2019-01-23T17:00:02.500Z,15.83
2019-01-23T17:02:38.810Z,14.37
2019-01-23T17:05:13.693Z,17.33
2019-01-23T17:07:47.704Z,15.63
2019-01-23T17:10:22.598Z,17.57
2019-01-23T17:12:55.186Z,15.23
2019-01-23T17:15:27.527Z,14.53
2019-01-23T17:17:59.954Z,15.30
2019-01-23T17:20:48.405Z,20.10
2019-01-23T17:23:21.192Z,14.43
2019-01-23T17:25:53.741Z,30.87
2019-01-23T17:28:26.655Z,15.93
2019-01-23T17:30:59.190Z,15.03
2019-01-23T17:33:31.854Z,15.30
2019-01-23T17:36:04.367Z,14.23
2019-01-23T17:38:37.046Z,14.07
2019-01-23T17:41:09.611Z,14.63
2019-01-23T17:43:42.278Z,14.87
2019-01-23T17:46:14.788Z,15.07
2019-01-23T17:48:47.337Z,14.60
2019-01-23T17:51:20.101Z,55.83
2019-01-23T17:53:52.959Z,19.17
2019-01-23T17:56:25.419Z,15.20
2019-01-23T17:58:58.233Z,15.00
2019-01-23T18:01:30.905Z,14.87
2019-01-23T18:04:03.431Z,14.73
2019-01-23T18:06:36.004Z,16.37
2019-01-23T18:09:11.443Z,17.07
2019-01-23T18:11:44.109Z,16.47
2019-01-23T18:14:16.851Z,16.93
2019-01-23T18:16:49.432Z,22.40
2019-01-23T18:19:22.049Z,21.80
2019-01-23T18:21:54.434Z,16.13
2019-01-23T18:24:27.170Z,15.20
2019-01-23T18:26:59.735Z,16.37
2019-01-23T18:29:32.395Z,16.17
2019-01-23T18:32:10.562Z,17.33
2019-01-23T18:35:35.150Z,17.13
2019-01-23T18:39:01.023Z,19.80
2019-01-23T18:42:06.906Z,18.17
2019-01-23T18:45:25.038Z,15.93
2019-01-23T18:48:47.084Z,15.57
2019-01-23T18:51:47.386Z,16.47
2019-01-23T18:54:19.912Z,17.10
2019-01-23T18:56:52.720Z,18.27
2019-01-23T18:59:25.223Z,17.63
2019-01-23T19:01:58.100Z,17.10
2019-01-23T19:04:30.980Z,18.30
2019-01-23T19:07:03.287Z,19.30
2019-01-23T19:09:35.714Z,20.00
2019-01-23T19:12:09.040Z,18.63
2019-01-23T19:14:41.393Z,19.10
2019-01-23T19:17:14.015Z,19.10
2019-01-23T19:19:46.638Z,18.73
2019-01-23T19:22:19.202Z,17.90
2019-01-23T19:24:51.762Z,17.60
2019-01-23T19:27:24.882Z,18.97
2019-01-23T19:29:57.560Z,19.27
2019-01-23T19:32:30.081Z,18.57
2019-01-23T19:35:02.565Z,21.50
2019-01-23T19:37:35.117Z,18.73
2019-01-23T19:40:09.611Z,19.17
2019-01-23T19:42:42.083Z,18.80
2019-01-23T19:45:19.128Z,19.93
2019-01-23T19:47:52.025Z,20.13
2019-01-23T19:50:24.717Z,19.30
2019-01-23T19:52:57.081Z,19.40
2019-01-23T19:55:32.688Z,42.40
2019-01-23T19:58:05.190Z,21.77
2019-01-23T20:00:37.938Z,22.23
2019-01-23T20:03:10.605Z,23.47
2019-01-23T20:05:43.356Z,24.70
2019-01-23T20:08:16.177Z,22.07
2019-01-23T20:10:48.682Z,28.97
2019-01-23T20:13:21.395Z,35.50
2019-01-23T20:15:54.277Z,24.57
2019-01-23T20:18:27.022Z,33.87
2019-01-23T20:21:00.772Z,33.03
2019-01-23T20:23:33.346Z,24.03
2019-01-23T20:26:06.232Z,22.90
2019-01-23T20:28:39.007Z,43.43
2019-01-23T20:31:11.833Z,29.77
2019-01-23T20:33:44.414Z,23.43
2019-01-23T20:36:17.259Z,24.13
2019-01-23T20:38:50.068Z,24.07
2019-01-23T20:41:23.597Z,26.73
2019-01-23T20:43:56.099Z,28.70
2019-01-23T20:46:30.081Z,25.67
2019-01-23T20:49:02.551Z,28.97
2019-01-23T20:51:35.161Z,27.57
2019-01-23T20:54:08.422Z,25.60
2019-01-23T20:56:42.719Z,26.77
2019-01-23T20:59:15.151Z,27.13
2019-01-23T21:01:48.596Z,28.93
2019-01-23T21:04:21.396Z,29.60
2019-01-23T21:06:54.191Z,28.27
2019-01-23T21:09:26.646Z,26.30
2019-01-23T21:11:59.109Z,26.50
2019-01-23T21:14:31.755Z,24.57
2019-01-23T21:17:04.468Z,24.97
2019-01-23T21:19:36.925Z,30.03
2019-01-23T21:22:11.022Z,29.43
2019-01-23T21:24:43.817Z,27.90
2019-01-23T21:27:17.879Z,44.33
2019-01-23T21:29:50.174Z,28.20
2019-01-23T21:32:23.821Z,27.90
2019-01-23T21:34:56.329Z,26.07
2019-01-23T21:37:29.754Z,26.63
2019-01-23T21:40:02.394Z,26.40
2019-01-23T21:42:34.937Z,27.60
2019-01-23T21:45:09.470Z,26.00
2019-01-23T21:47:42.276Z,25.30
2019-01-23T21:50:17.882Z,36.27
2019-01-23T21:52:50.469Z,26.13
2019-01-23T21:55:24.545Z,26.60
2019-01-23T21:57:57.298Z,25.70
2019-01-23T22:00:45.472Z,24.80
2019-01-23T22:03:18.168Z,24.43
2019-01-23T22:05:50.806Z,25.10
2019-01-23T22:08:23.315Z,25.23
2019-01-23T22:10:55.855Z,25.73
2019-01-23T22:13:28.619Z,24.20
2019-01-23T22:16:01.148Z,25.77
2019-01-23T22:18:34.087Z,25.13
2019-01-23T22:21:06.722Z,25.97
2019-01-23T22:23:39.481Z,25.80
2019-01-23T22:26:12.531Z,24.73
2019-01-23T22:28:45.072Z,26.23
2019-01-23T22:31:17.763Z,23.50
2019-01-23T22:33:56.132Z,24.57
2019-01-23T22:36:25.549Z,24.40
2019-01-23T22:38:57.942Z,24.90
2019-01-23T22:41:30.461Z,25.83
2019-01-23T22:44:03.089Z,24.33
2019-01-23T22:46:37.077Z,23.87
2019-01-23T22:49:09.388Z,24.00
2019-01-23T22:51:42.300Z,24.03
2019-01-23T22:54:14.947Z,23.17
2019-01-23T22:56:47.433Z,24.23
2019-01-23T22:59:20.073Z,23.53
2019-01-23T23:01:52.600Z,22.53
2019-01-23T23:04:43.919Z,24.33
2019-01-23T23:07:16.410Z,22.40
2019-01-23T23:09:48.881Z,23.37
2019-01-23T23:12:21.630Z,22.00
2019-01-23T23:14:54.029Z,23.30
2019-01-23T23:17:26.716Z,22.03
2019-01-23T23:19:59.455Z,22.20
2019-01-23T23:22:32.146Z,23.43
2019-01-23T23:25:05.045Z,21.40
2019-01-23T23:27:39.501Z,23.13
2019-01-23T23:30:14.030Z,22.97
2019-01-23T23:32:46.446Z,21.73
2019-01-23T23:35:19.157Z,23.33
2019-01-23T23:37:51.462Z,21.50
2019-01-23T23:40:24.032Z,22.23
2019-01-23T23:42:56.807Z,22.73
2019-01-23T23:45:29.206Z,22.53
2019-01-23T23:48:01.803Z,22.63
2019-01-23T23:50:34.439Z,22.47
2019-01-23T23:53:07.158Z,23.30
2019-01-23T23:55:39.666Z,24.23
2019-01-23T23:58:12.274Z,25.63
